Time;durP1;ratioP1;P1;durP2;ratioP2;P2;SDS_P1;SDS_P2;PMS_P1;PMS_P2;Temp;Humidity;BMP_temperature;BMP_pressure;BME280_temperature;BME280_humidity;BME280_pressure;Samples;Min_cycle;Max_cycle;Signal;HPM_P1;HPM_P2
2023/03/14 00:01:13;;;;;;;27.83;4.95;;;10.20;99.90;;;;;;5113362;27;20486;-81
2023/03/14 00:03:38;;;;;;;27.17;5.28;;;10.90;99.90;;;;;;5096217;27;20069;-81
2023/03/14 00:06:06;;;;;;;28.00;5.50;;;9.10;99.90;;;;;;5094061;27;20431;-81
2023/03/14 00:08:31;;;;;;;27.92;4.45;;;9.20;99.90;;;;;;5131968;27;20046;-81
2023/03/14 00:11:00;;;;;;;23.02;5.35;;;10.10;99.90;;;;;;5096232;27;20039;-81
2023/03/14 00:13:25;;;;;;;27.83;5.40;;;9.20;99.90;;;;;;5109105;28;20395;-81
2023/03/14 00:15:51;;;;;;;30.45;5.28;;;10.20;99.90;;;;;;5118674;27;20501;-82
2023/03/14 00:18:16;;;;;;;23.50;4.85;;;11.20;99.90;;;;;;5121838;27;20040;-81
2023/03/14 00:20:42;;;;;;;20.13;5.47;;;9.50;99.90;;;;;;5122986;27;20129;-82
2023/03/14 00:23:08;;;;;;;19.88;3.90;;;9.80;99.90;;;;;;5121030;27;20049;-81
2023/03/14 00:25:34;;;;;;;29.70;5.32;;;9.60;99.90;;;;;;5131669;27;20042;-81
2023/03/14 00:28:00;;;;;;;31.50;5.60;;;11.00;99.90;;;;;;5094966;27;20047;-81
2023/03/14 00:30:26;;;;;;;23.30;5.60;;;9.60;99.90;;;;;;5109558;28;20216;-81
2023/03/14 00:32:51;;;;;;;27.45;4.80;;;9.60;99.90;;;;;;5109891;28;20122;-81
2023/03/14 00:35:17;;;;;;;22.30;3.97;;;10.50;99.90;;;;;;5111219;27;20043;-81
2023/03/14 00:37:42;;;;;;;23.65;4.18;;;10.80;99.90;;;;;;5112923;27;20039;-81
2023/03/14 00:40:09;;;;;;;24.05;4.97;;;9.60;99.90;;;;;;5121070;27;20050;-81
2023/03/14 00:42:34;;;;;;;27.15;5.20;;;9.60;99.90;;;;;;5111645;27;20099;-81
2023/03/14 00:45:01;;;;;;;22.15;4.10;;;9.60;99.90;;;;;;5114152;27;20035;-81
2023/03/14 00:47:27;;;;;;;21.02;4.38;;;9.60;99.90;;;;;;5132788;28;20040;-81
2023/03/14 00:49:53;;;;;;;23.63;5.50;;;11.20;99.90;;;;;;5123147;27;20043;-82
2023/03/14 00:52:19;;;;;;;21.42;4.38;;;10.40;99.90;;;;;;5109385;28;20056;-81
2023/03/14 00:54:44;;;;;;;23.23;4.50;;;10.20;99.90;;;;;;5075683;28;20138;-82
2023/03/14 00:57:10;;;;;;;21.20;3.92;;;9.60;99.90;;;;;;5105644;27;20039;-81
2023/03/14 00:59:35;;;;;;;18.65;4.05;;;10.90;99.90;;;;;;5112787;27;20039;-82
2023/03/14 01:02:01;;;;;;;20.67;4.68;;;9.70;99.90;;;;;;5086375;27;20054;-82
2023/03/14 01:04:27;;;;;;;22.67;3.63;;;9.90;99.90;;;;;;5091873;28;20031;-81
2023/03/14 01:06:52;;;;;;;26.02;4.10;;;10.00;99.90;;;;;;5119255;27;20044;-81
2023/03/14 01:09:18;;;;;;;17.38;3.78;;;9.80;99.90;;;;;;5111318;27;20027;-81
2023/03/14 01:11:46;;;;;;;23.70;4.57;;;9.70;99.90;;;;;;5112351;27;20483;-81
2023/03/14 01:14:12;;;;;;;23.27;4.22;;;9.70;99.90;;;;;;5112861;27;20517;-81
2023/03/14 01:16:38;;;;;;;22.10;3.67;;;9.60;99.90;;;;;;5111627;27;20078;-81
2023/03/14 01:19:04;;;;;;;19.08;3.80;;;9.80;99.90;;;;;;5121008;27;20066;-81
2023/03/14 01:21:34;;;;;;;21.00;4.30;;;9.90;99.90;;;;;;5108826;28;20099;-81
2023/03/14 01:24:03;;;;;;;17.85;3.50;;;9.80;99.90;;;;;;5108226;27;20047;-81
2023/03/14 01:26:32;;;;;;;36.45;4.53;;;11.10;99.90;;;;;;5095123;27;20074;-81
2023/03/14 01:28:59;;;;;;;14.73;3.00;;;9.70;99.90;;;;;;5112543;27;20057;-81
2023/03/14 01:31:25;;;;;;;25.95;4.30;;;10.00;99.90;;;;;;5093873;27;20042;-81
2023/03/14 01:33:51;;;;;;;12.95;2.55;;;10.30;99.90;;;;;;5111425;27;20502;-81
2023/03/14 01:36:17;;;;;;;20.05;3.00;;;10.10;99.90;;;;;;5109230;27;20084;-81
2023/03/14 01:38:43;;;;;;;17.90;3.15;;;10.10;99.90;;;;;;5107999;28;20047;-81
2023/03/14 01:41:14;;;;;;;16.17;3.33;;;10.10;99.90;;;;;;5118638;27;20075;-81
2023/03/14 01:43:40;;;;;;;24.33;4.22;;;10.70;99.90;;;;;;5100378;28;20039;-81
2023/03/14 01:46:05;;;;;;;11.93;2.38;;;10.10;99.90;;;;;;5091557;27;20383;-81
2023/03/14 01:48:33;;;;;;;21.95;3.83;;;10.10;99.90;;;;;;5093778;27;20386;-81
2023/03/14 01:51:00;;;;;;;14.73;3.15;;;10.50;99.90;;;;;;5109719;27;20071;-82
2023/03/14 01:53:27;;;;;;;17.02;2.47;;;10.20;99.90;;;;;;5110359;27;20039;-81
2023/03/14 01:55:56;;;;;;;17.80;2.38;;;11.30;99.90;;;;;;5129389;27;20484;-81
2023/03/14 01:58:25;;;;;;;13.73;2.53;;;11.10;99.90;;;;;;5128801;27;20091;-81
2023/03/14 02:00:51;;;;;;;14.32;2.95;;;10.10;99.90;;;;;;5104658;27;20043;-82
2023/03/14 02:03:18;;;;;;;12.50;2.85;;;10.10;99.90;;;;;;5092225;27;20044;-81
2023/03/14 02:05:46;;;;;;;13.48;2.22;;;11.50;99.90;;;;;;5093044;27;20482;-81
2023/03/14 02:08:25;;;;;;;13.98;2.70;;;10.70;99.90;;;;;;5107540;27;20043;-82
2023/03/14 02:10:54;;;;;;;14.65;2.72;;;9.00;99.90;;;;;;5090128;27;20497;-81
2023/03/14 02:13:21;;;;;;;12.75;2.25;;;9.90;99.90;;;;;;5120421;27;20092;-81
2023/03/14 02:15:47;;;;;;;9.82;2.20;;;10.00;99.90;;;;;;5127903;27;20054;-82
2023/03/14 02:18:15;;;;;;;12.57;2.45;;;10.30;99.90;;;;;;5110134;27;20142;-81
2023/03/14 02:21:00;;;;;;;15.13;2.88;;;10.00;99.90;;;;;;5106765;28;20084;-82
2023/03/14 02:23:51;;;;;;;16.70;2.83;;;10.10;99.90;;;;;;5121563;27;20074;-82
2023/03/14 02:26:27;;;;;;;13.35;2.47;;;9.80;99.90;;;;;;5138212;27;20508;-82
2023/03/14 02:28:53;;;;;;;13.43;2.75;;;9.80;99.90;;;;;;5112020;28;20035;-82
2023/03/14 02:31:21;;;;;;;19.65;2.58;;;9.70;99.90;;;;;;5128254;27;20043;-81
2023/03/14 02:33:47;;;;;;;17.98;3.08;;;9.90;99.90;;;;;;5109681;27;20043;-82
2023/03/14 02:36:14;;;;;;;15.02;2.47;;;9.70;99.90;;;;;;5108822;28;20043;-81
2023/03/14 02:39:08;;;;;;;14.73;2.30;;;10.30;99.90;;;;;;5093549;28;20039;-82
2023/03/14 02:41:34;;;;;;;14.52;2.70;;;9.70;99.90;;;;;;5090987;28;20045;-82
2023/03/14 02:43:59;;;;;;;16.40;2.67;;;9.70;99.90;;;;;;5109394;28;20047;-82
2023/03/14 02:46:25;;;;;;;19.48;2.58;;;9.70;99.90;;;;;;5094619;27;20390;-82
2023/03/14 02:49:17;;;;;;;14.13;1.83;;;9.70;99.90;;;;;;5125020;27;20117;-82
2023/03/14 02:51:44;;;;;;;12.93;2.08;;;10.10;99.90;;;;;;5124583;27;20054;-82
2023/03/14 02:54:10;;;;;;;14.07;2.47;;;9.60;99.90;;;;;;5123568;27;20043;-82
2023/03/14 02:56:37;;;;;;;12.27;2.83;;;10.50;99.90;;;;;;5097659;27;20572;-81
2023/03/14 02:59:05;;;;;;;13.98;2.58;;;10.70;99.90;;;;;;5111377;28;20044;-82
2023/03/14 03:01:32;;;;;;;13.30;2.22;;;10.50;99.90;;;;;;5102785;28;20097;-82
2023/03/14 03:03:58;;;;;;;9.82;2.17;;;9.40;99.90;;;;;;5128792;27;20043;-82
2023/03/14 03:06:24;;;;;;;12.55;2.88;;;10.90;99.90;;;;;;5122043;27;20391;-82
2023/03/14 03:08:49;;;;;;;13.48;1.90;;;9.20;99.90;;;;;;5120943;27;20875;-82
2023/03/14 03:11:15;;;;;;;15.50;2.97;;;8.00;99.90;;;;;;5121801;27;20039;-81
2023/03/14 03:13:41;;;;;;;14.48;2.63;;;11.20;99.90;;;;;;5124445;27;20056;-81
2023/03/14 03:16:07;;;;;;;7.05;1.50;;;11.00;99.90;;;;;;5110103;27;20055;-82
2023/03/14 03:18:32;;;;;;;14.80;2.88;;;9.10;99.90;;;;;;5124815;27;20035;-82
2023/03/14 03:21:03;;;;;;;12.82;3.08;;;10.50;99.90;;;;;;5097252;27;20039;-82
2023/03/14 03:23:29;;;;;;;11.10;2.70;;;8.90;99.90;;;;;;5110776;27;20039;-82
2023/03/14 03:25:54;;;;;;;14.90;3.28;;;9.80;99.90;;;;;;5110565;28;20092;-81
2023/03/14 03:28:20;;;;;;;12.10;2.72;;;10.30;99.90;;;;;;5095570;27;20039;-81
2023/03/14 03:30:46;;;;;;;15.50;3.25;;;10.50;99.90;;;;;;5096079;27;20074;-82
2023/03/14 03:33:12;;;;;;;17.70;3.33;;;8.90;99.90;;;;;;5094050;27;20130;-81
2023/03/14 03:35:49;;;;;;;17.27;3.25;;;9.70;99.90;;;;;;5114098;27;20064;-82
2023/03/14 03:38:16;;;;;;;25.13;3.58;;;8.90;99.90;;;;;;5121882;27;20043;-81
2023/03/14 03:40:42;;;;;;;13.77;2.92;;;10.30;99.90;;;;;;5088841;27;20082;-82
2023/03/14 03:43:08;;;;;;;12.18;3.10;;;9.70;99.90;;;;;;5123292;27;20054;-82
2023/03/14 03:45:34;;;;;;;15.13;3.90;;;8.80;99.90;;;;;;5128171;27;20039;-82
2023/03/14 03:47:59;;;;;;;21.27;3.45;;;9.50;99.90;;;;;;5127464;27;20106;-83
2023/03/14 03:50:25;;;;;;;13.43;2.75;;;10.60;99.90;;;;;;5091010;27;20588;-83
2023/03/14 03:52:51;;;;;;;13.00;3.05;;;9.50;99.90;;;;;;5095845;27;20045;-82
2023/03/14 03:55:16;;;;;;;13.95;2.40;;;10.50;99.90;;;;;;5113045;27;20068;-82
2023/03/14 03:57:42;;;;;;;15.18;3.65;;;8.80;99.90;;;;;;5122617;27;20343;-83
2023/03/14 04:00:11;;;;;;;15.73;2.60;;;9.70;99.90;;;;;;5123403;27;20044;-82
2023/03/14 04:02:37;;;;;;;18.00;3.80;;;8.80;99.90;;;;;;5120219;27;20046;-82
2023/03/14 04:05:03;;;;;;;21.33;4.55;;;8.80;99.90;;;;;;5126732;27;20043;-82
2023/03/14 04:07:32;;;;;;;17.70;3.88;;;8.80;99.90;;;;;;5113852;27;20066;-82
2023/03/14 04:10:03;;;;;;;12.95;3.15;;;8.80;99.90;;;;;;5096520;27;20050;-82
2023/03/14 04:12:29;;;;;;;20.60;3.45;;;8.50;99.90;;;;;;5119932;27;20047;-82
2023/03/14 04:14:55;;;;;;;18.05;4.03;;;8.80;99.90;;;;;;5109956;27;20517;-84
2023/03/14 04:17:20;;;;;;;13.60;3.30;;;8.70;99.90;;;;;;5121328;27;20051;-82
2023/03/14 04:19:49;;;;;;;16.38;3.30;;;10.30;99.90;;;;;;5119870;27;20040;-83
2023/03/14 04:22:14;;;;;;;19.08;4.05;;;8.80;99.90;;;;;;5112178;27;20520;-83
2023/03/14 04:24:40;;;;;;;20.45;3.78;;;8.80;99.90;;;;;;5123302;27;20039;-83
2023/03/14 04:27:06;;;;;;;18.33;4.78;;;9.90;99.90;;;;;;5112168;27;20147;-82
2023/03/14 04:29:31;;;;;;;23.48;4.68;;;10.30;99.90;;;;;;5120045;27;20071;-82
2023/03/14 04:31:57;;;;;;;15.88;4.43;;;10.50;99.90;;;;;;5095333;27;20035;-83
2023/03/14 04:34:23;;;;;;;20.80;5.00;;;9.30;99.90;;;;;;5121755;27;20561;-82
2023/03/14 04:36:48;;;;;;;15.88;4.65;;;8.70;99.90;;;;;;5122908;27;20088;-82
2023/03/14 04:39:14;;;;;;;17.80;6.28;;;10.30;99.90;;;;;;5112315;27;20090;-82
2023/03/14 04:41:39;;;;;;;23.35;5.95;;;10.40;99.90;;;;;;5121910;27;20375;-82
2023/03/14 04:44:05;;;;;;;20.95;6.28;;;9.60;99.90;;;;;;5090143;28;20443;-82
2023/03/14 04:46:31;;;;;;;15.15;4.93;;;10.30;99.90;;;;;;5122381;27;20047;-82
2023/03/14 04:48:56;;;;;;;15.82;5.97;;;10.20;99.90;;;;;;5122028;27;20043;-82
2023/03/14 04:51:23;;;;;;;22.80;6.10;;;10.30;99.90;;;;;;5110472;27;20049;-82
2023/03/14 04:53:48;;;;;;;17.52;6.45;;;10.20;99.90;;;;;;5109536;28;20043;-82
2023/03/14 04:56:14;;;;;;;17.83;5.80;;;9.90;99.90;;;;;;5126652;27;20041;-82
2023/03/14 04:58:40;;;;;;;13.80;5.30;;;8.60;99.90;;;;;;5112650;27;20043;-82
2023/03/14 05:01:06;;;;;;;18.13;6.35;;;9.00;99.90;;;;;;5111126;27;20050;-82
2023/03/14 05:03:32;;;;;;;18.63;6.00;;;8.70;99.90;;;;;;5109661;27;20067;-83
2023/03/14 05:05:58;;;;;;;20.30;6.15;;;10.60;99.90;;;;;;5091658;28;20349;-83
2023/03/14 05:08:24;;;;;;;17.00;6.35;;;9.80;99.90;;;;;;5109064;27;20038;-83
2023/03/14 05:10:57;;;;;;;13.02;4.72;;;10.40;99.90;;;;;;5122299;27;20042;-83
2023/03/14 05:13:23;;;;;;;15.45;5.38;;;10.00;99.90;;;;;;5111471;27;20047;-83
2023/03/14 05:15:50;;;;;;;12.88;4.22;;;9.90;99.90;;;;;;5111271;27;20134;-84
2023/03/14 05:18:16;;;;;;;10.98;4.85;;;9.90;99.90;;;;;;5118612;27;20047;-84
2023/03/14 05:20:43;;;;;;;18.52;5.78;;;10.40;99.90;;;;;;5126525;27;20085;-84
2023/03/14 05:23:09;;;;;;;12.68;4.97;;;10.40;99.90;;;;;;5094074;27;20108;-84
2023/03/14 05:25:35;;;;;;;17.67;6.20;;;10.10;99.90;;;;;;5091216;27;20038;-84
2023/03/14 05:28:01;;;;;;;15.13;4.57;;;9.60;99.90;;;;;;5121561;27;20182;-83
2023/03/14 05:30:28;;;;;;;20.25;6.25;;;8.40;99.90;;;;;;5110934;27;20538;-84
2023/03/14 05:32:54;;;;;;;14.10;5.82;;;10.00;99.90;;;;;;5111714;27;20061;-83
2023/03/14 05:35:52;;;;;;;14.85;5.20;;;8.40;99.90;;;;;;5110807;27;20431;-83
2023/03/14 05:38:36;;;;;;;15.80;5.20;;;8.50;99.90;;;;;;5121121;27;20486;-84
2023/03/14 05:41:02;;;;;;;12.85;5.38;;;8.60;99.90;;;;;;5121603;27;20092;-84
2023/03/14 05:43:27;;;;;;;15.00;5.35;;;8.50;99.90;;;;;;5108867;27;20047;-83
2023/03/14 05:45:53;;;;;;;14.20;4.55;;;10.40;99.90;;;;;;5121573;27;20049;-84
2023/03/14 05:48:19;;;;;;;11.15;4.80;;;8.70;99.90;;;;;;5108889;27;20101;-85
2023/03/14 05:54:17;;;;;;;7.97;4.07;;;9.40;99.90;;;;;;5055858;27;20113;-83
2023/03/14 05:56:43;;;;;;;9.43;4.18;;;8.90;99.90;;;;;;5121702;27;20421;-83
2023/03/14 05:59:10;;;;;;;9.82;4.53;;;9.70;99.90;;;;;;5120549;27;20078;-83
2023/03/14 06:01:35;;;;;;;8.38;4.40;;;10.20;99.90;;;;;;5108021;27;20067;-83
2023/03/14 06:04:01;;;;;;;8.55;4.03;;;10.10;99.90;;;;;;5124347;27;20084;-83
2023/03/14 06:06:27;;;;;;;8.07;3.15;;;9.30;99.90;;;;;;5126942;27;20497;-84
2023/03/14 06:08:52;;;;;;;7.80;3.50;;;8.70;99.90;;;;;;5090872;28;20083;-84
2023/03/14 06:11:18;;;;;;;10.45;4.20;;;10.30;99.90;;;;;;5107268;28;20461;-83
2023/03/14 06:13:44;;;;;;;6.63;4.40;;;9.60;99.90;;;;;;5107205;28;20126;-84
2023/03/14 06:16:09;;;;;;;7.30;3.33;;;10.10;99.90;;;;;;5089138;27;20058;-83
2023/03/14 06:18:48;;;;;;;7.43;3.55;;;8.50;99.90;;;;;;5099532;28;20105;-84
2023/03/14 06:21:14;;;;;;;7.25;3.13;;;10.00;99.90;;;;;;5109373;28;20075;-83
2023/03/14 06:23:40;;;;;;;8.20;3.40;;;8.50;99.90;;;;;;5102693;28;20035;-84
2023/03/14 06:26:06;;;;;;;6.78;2.65;;;8.60;99.90;;;;;;5109768;27;20050;-83
2023/03/14 06:28:32;;;;;;;10.30;3.20;;;8.50;99.90;;;;;;5091545;27;20047;-84
2023/03/14 06:30:59;;;;;;;9.10;3.10;;;10.30;99.90;;;;;;5090123;28;20354;-84
2023/03/14 06:33:24;;;;;;;3.13;1.00;;;10.20;99.90;;;;;;5090681;28;20043;-84
2023/03/14 06:35:50;;;;;;;10.15;3.65;;;8.20;99.90;;;;;;5125965;27;20092;-84
2023/03/14 06:38:16;;;;;;;10.30;1.05;;;8.10;99.90;;;;;;5093590;28;20751;-83
2023/03/14 06:40:41;;;;;;;10.43;1.70;;;7.70;99.90;;;;;;5093126;27;20055;-84
2023/03/14 06:43:13;;;;;;;12.45;1.58;;;9.30;99.90;;;;;;5111295;28;20039;-83
2023/03/14 06:45:38;;;;;;;11.55;1.67;;;9.50;99.90;;;;;;5109685;28;20402;-87
2023/03/14 06:48:04;;;;;;;10.02;1.20;;;7.30;99.90;;;;;;5092916;28;20423;-84
2023/03/14 06:50:30;;;;;;;7.32;1.60;;;7.20;99.90;;;;;;5109436;28;20043;-83
2023/03/14 06:52:56;;;;;;;11.10;1.83;;;9.10;99.90;;;;;;5085590;28;20035;-82
2023/03/14 06:55:21;;;;;;;14.60;1.45;;;8.80;99.90;;;;;;5092489;28;20491;-82
2023/03/14 06:57:47;;;;;;;17.83;6.53;;;8.80;99.90;;;;;;5093960;28;20074;-84
2023/03/14 07:00:13;;;;;;;8.65;1.70;;;8.50;99.90;;;;;;5120547;28;20043;-84
2023/03/14 07:02:39;;;;;;;11.23;1.60;;;6.70;99.90;;;;;;5073242;28;20040;-82
2023/03/14 07:05:06;;;;;;;12.68;1.63;;;7.00;99.90;;;;;;5089767;28;20051;-83
2023/03/14 07:07:32;;;;;;;5.88;0.80;;;6.50;99.90;;;;;;5075381;28;20488;-83
2023/03/14 07:09:58;;;;;;;6.70;1.00;;;7.90;99.90;;;;;;5120347;28;20524;-82
2023/03/14 07:12:24;;;;;;;6.70;0.90;;;8.00;99.90;;;;;;5093007;28;20071;-83
2023/03/14 07:14:50;;;;;;;9.07;0.60;;;6.50;99.90;;;;;;5109161;28;20111;-82
2023/03/14 07:17:16;;;;;;;7.07;0.98;;;7.00;99.90;;;;;;5109773;28;20142;-87
2023/03/14 07:19:41;;;;;;;7.20;0.60;;;5.40;99.90;;;;;;5084456;28;20720;-83
2023/03/14 07:22:07;;;;;;;7.47;0.50;;;7.40;99.90;;;;;;5106415;28;20091;-82
2023/03/14 07:24:33;;;;;;;5.85;0.57;;;5.70;99.90;;;;;;5109337;28;20166;-82
2023/03/14 07:26:58;;;;;;;9.48;1.05;;;6.60;99.90;;;;;;5093243;28;20513;-82
2023/03/14 07:29:24;;;;;;;6.57;1.48;;;5.40;99.90;;;;;;5108277;28;20176;-83
2023/03/14 07:31:50;;;;;;;3.97;0.40;;;5.20;99.90;;;;;;5107570;28;20048;-83
2023/03/14 07:34:16;;;;;;;2.92;0.20;;;7.20;99.90;;;;;;5108004;28;20047;-82
2023/03/14 07:36:41;;;;;;;3.03;0.47;;;4.70;99.90;;;;;;5121031;27;20052;-83
2023/03/14 07:39:07;;;;;;;4.50;0.43;;;6.60;99.90;;;;;;5120160;27;20038;-81
2023/03/14 07:41:33;;;;;;;1.42;0.22;;;4.70;99.90;;;;;;5122211;27;20044;-83
2023/03/14 07:43:59;;;;;;;7.50;0.68;;;4.90;99.90;;;;;;5114300;27;20130;-84
2023/03/14 07:46:24;;;;;;;3.80;0.82;;;4.90;99.90;;;;;;5122987;27;20491;-81
2023/03/14 07:48:50;;;;;;;5.28;0.60;;;4.90;99.90;;;;;;5119970;27;20495;-81
2023/03/14 07:51:16;;;;;;;2.85;0.40;;;5.30;99.90;;;;;;5120015;27;20039;-82
2023/03/14 07:53:45;;;;;;;6.97;0.65;;;6.40;99.90;;;;;;5097678;27;20031;-81
2023/03/14 07:56:11;;;;;;;4.90;0.70;;;5.70;99.90;;;;;;5112920;27;20058;-81
2023/03/14 07:58:36;;;;;;;5.90;2.08;;;6.30;99.90;;;;;;5094360;27;20078;-82
2023/03/14 08:01:03;;;;;;;4.65;1.23;;;6.60;99.90;;;;;;5110305;28;20131;-82
2023/03/14 08:03:28;;;;;;;3.88;0.45;;;4.80;99.90;;;;;;5094622;27;20040;-81
2023/03/14 08:05:54;;;;;;;6.20;0.35;;;5.30;99.90;;;;;;5095178;27;20050;-82
2023/03/14 08:08:20;;;;;;;5.53;1.23;;;4.60;99.90;;;;;;5123835;27;20043;-83
2023/03/14 08:10:46;;;;;;;9.18;1.33;;;6.80;99.90;;;;;;5113299;27;20440;-82
2023/03/14 08:13:12;;;;;;;8.23;0.60;;;4.70;99.90;;;;;;5113532;27;20047;-82
2023/03/14 08:15:38;;;;;;;6.03;0.60;;;6.10;99.90;;;;;;5093725;27;20104;-81
2023/03/14 08:18:04;;;;;;;9.75;1.15;;;4.80;99.90;;;;;;5109674;28;20047;-81
2023/03/14 08:20:30;;;;;;;10.35;1.27;;;4.80;99.90;;;;;;5112217;27;20255;-82
2023/03/14 08:22:57;;;;;;;8.65;1.40;;;4.70;99.90;;;;;;5113767;27;20035;-81
2023/03/14 08:25:23;;;;;;;7.00;0.52;;;4.80;99.90;;;;;;5112001;27;20043;-82
2023/03/14 08:27:49;;;;;;;7.78;0.70;;;6.10;99.90;;;;;;5093712;28;20050;-84
2023/03/14 08:30:17;;;;;;;8.55;0.77;;;4.70;99.90;;;;;;5091754;28;20048;-81
2023/03/14 08:32:43;;;;;;;9.75;1.05;;;4.80;99.90;;;;;;5113230;27;20114;-82
2023/03/14 08:35:09;;;;;;;6.15;1.17;;;6.00;99.90;;;;;;5112424;27;20143;-81
2023/03/14 08:37:35;;;;;;;11.45;1.75;;;6.60;99.90;;;;;;5110461;27;20066;-81
2023/03/14 08:40:06;;;;;;;5.72;0.60;;;4.90;99.90;;;;;;5109994;28;20047;-81
2023/03/14 08:42:38;;;;;;;5.60;0.75;;;5.10;99.90;;;;;;5111857;27;20506;-82
2023/03/14 08:45:04;;;;;;;8.13;1.25;;;5.10;99.90;;;;;;5111782;27;20109;-81
2023/03/14 08:47:30;;;;;;;8.70;0.85;;;5.10;99.90;;;;;;5122806;27;20031;-82
2023/03/14 08:49:56;;;;;;;7.35;0.80;;;7.20;99.90;;;;;;5087570;27;20043;-82
2023/03/14 08:52:22;;;;;;;10.30;1.52;;;7.10;99.90;;;;;;5109053;27;20063;-82
2023/03/14 08:54:47;;;;;;;9.30;1.67;;;5.00;99.90;;;;;;5113151;27;20039;-81
2023/03/14 08:57:13;;;;;;;8.13;1.15;;;7.00;99.90;;;;;;5091899;28;20064;-81
2023/03/14 08:59:39;;;;;;;13.93;1.77;;;7.10;99.90;;;;;;5127810;27;20149;-82
2023/03/14 09:02:05;;;;;;;16.63;1.70;;;7.30;99.90;;;;;;5118849;27;20031;-82
2023/03/14 09:04:32;;;;;;;18.50;2.03;;;6.20;99.90;;;;;;5111312;27;20047;-82
2023/03/14 09:06:58;;;;;;;17.08;2.78;;;6.80;99.90;;;;;;5095204;27;20054;-83
2023/03/14 09:09:27;;;;;;;18.13;2.40;;;5.30;99.90;;;;;;5112175;27;20047;-81
2023/03/14 09:11:53;;;;;;;25.80;3.22;;;5.40;99.90;;;;;;5092445;28;20050;-81
2023/03/14 09:14:18;;;;;;;17.48;2.30;;;5.40;99.90;;;;;;5112104;27;20039;-82
2023/03/14 09:16:44;;;;;;;21.13;3.25;;;5.20;99.90;;;;;;5112357;27;20392;-81
2023/03/14 09:19:10;;;;;;;20.83;3.10;;;4.90;99.90;;;;;;5095224;27;20047;-82
2023/03/14 09:21:36;;;;;;;20.10;2.60;;;7.10;99.90;;;;;;5109645;27;20046;-81
2023/03/14 09:24:02;;;;;;;18.73;3.03;;;6.90;99.90;;;;;;5092138;28;20043;-81
2023/03/14 09:26:28;;;;;;;26.98;4.05;;;;;;;;;;5110297;27;20044;-86
2023/03/14 09:28:55;;;;;;;20.48;3.17;;;5.60;99.90;;;;;;5122293;27;20101;-81
2023/03/14 09:31:21;;;;;;;17.02;2.72;;;5.60;99.90;;;;;;5111547;27;20065;-82
2023/03/14 09:33:47;;;;;;;24.98;3.55;;;5.90;99.90;;;;;;5094855;27;20491;-82
2023/03/14 09:36:12;;;;;;;21.27;3.33;;;6.60;99.90;;;;;;5094236;27;20494;-82
2023/03/14 15:35:41;;;;;;;7.38;0.80;;;;;;;;;;5085981;27;20487;-84
2023/03/14 15:49:08;;;;;;;8.68;0.93;;;5.30;99.90;;;;;;5126374;27;20326;-85
2023/03/14 15:51:34;;;;;;;8.60;1.23;;;;;;;;;;5125052;28;20142;-87
2023/03/14 15:54:00;;;;;;;8.85;1.02;;;5.10;99.90;;;;;;5107263;28;20103;-89
2023/03/14 15:56:30;;;;;;;11.30;1.30;;;4.20;99.90;;;;;;5125430;28;20077;-87
2023/03/14 15:58:56;;;;;;;12.35;1.15;;;4.90;99.90;;;;;;5100120;28;20032;-86
2023/03/14 16:01:21;;;;;;;12.93;1.73;;;4.70;99.90;;;;;;5125670;27;20042;-86
2023/03/14 16:03:48;;;;;;;9.65;2.60;;;;;;;;;;5125541;28;20047;-86
2023/03/14 16:06:15;;;;;;;6.90;1.30;;;5.00;99.90;;;;;;5125059;28;20055;-87
2023/03/14 16:08:42;;;;;;;9.85;1.67;;;8.90;99.90;;;;;;5125984;27;20098;-87
2023/03/14 16:11:10;;;;;;;8.77;1.25;;;9.10;99.90;;;;;;5107497;28;20055;-85
2023/03/14 16:13:35;;;;;;;4.28;1.02;;;7.10;99.90;;;;;;5107956;28;20032;-85
2023/03/14 16:16:03;;;;;;;7.93;0.80;;;4.80;99.90;;;;;;5106932;28;20631;-85
2023/03/14 16:18:31;;;;;;;10.10;1.00;;;4.70;99.90;;;;;;5108260;28;20044;-84
2023/03/14 16:20:59;;;;;;;12.70;1.25;;;4.10;99.90;;;;;;5150742;27;20043;-84
2023/03/14 16:23:26;;;;;;;14.23;1.08;;;1.40;99.90;;;;;;5106761;28;20074;-86
2023/03/14 16:25:53;;;;;;;9.75;1.23;;;4.10;99.90;;;;;;5107772;28;20050;-87
2023/03/14 16:28:19;;;;;;;12.75;2.33;;;7.60;99.90;;;;;;5124448;28;20533;-86
2023/03/14 16:30:46;;;;;;;11.25;1.85;;;6.70;99.90;;;;;;5125307;27;20040;-87
2023/03/14 16:33:12;;;;;;;8.13;1.30;;;7.40;99.90;;;;;;5107254;28;20031;-84
2023/03/14 16:35:39;;;;;;;10.65;1.85;;;4.00;99.90;;;;;;5125268;27;20109;-84
2023/03/14 16:38:05;;;;;;;9.70;2.13;;;7.50;99.90;;;;;;5124169;28;20043;-83
2023/03/14 16:40:32;;;;;;;10.23;1.52;;;;;;;;;;5124467;28;20043;-85
2023/03/14 16:42:57;;;;;;;6.53;1.48;;;4.10;99.90;;;;;;5122093;28;20082;-83
2023/03/14 16:45:23;;;;;;;8.07;1.30;;;3.60;99.90;;;;;;5130740;27;20390;-87
2023/03/14 16:47:48;;;;;;;20.98;1.70;;;4.00;99.90;;;;;;5116788;27;20055;-89
2023/03/14 16:50:14;;;;;;;12.98;1.85;;;7.90;99.90;;;;;;5123910;27;20039;-88
2023/03/14 16:52:40;;;;;;;8.95;1.02;;;4.10;99.90;;;;;;5121927;27;20095;-88
2023/03/14 16:55:06;;;;;;;7.32;1.25;;;4.10;99.90;;;;;;5096945;28;20039;-88
2023/03/14 16:57:32;;;;;;;8.52;1.10;;;4.10;99.90;;;;;;5120509;28;20054;-88
2023/03/14 16:59:58;;;;;;;6.50;1.00;;;4.10;99.90;;;;;;5105422;28;20053;-88
2023/03/14 17:02:24;;;;;;;12.70;1.33;;;4.10;99.90;;;;;;5102616;28;20733;-87
2023/03/14 17:04:50;;;;;;;13.93;1.52;;;4.10;99.90;;;;;;5101339;28;20115;-90
2023/03/14 17:07:15;;;;;;;8.45;1.27;;;5.00;99.90;;;;;;5104757;28;20085;-86
2023/03/14 17:09:41;;;;;;;14.02;1.05;;;8.00;99.90;;;;;;5106045;28;20088;-86
2023/03/14 17:12:07;;;;;;;9.75;1.83;;;4.30;99.90;;;;;;4394919;27;10000740;-87
2023/03/14 17:14:33;;;;;;;5.97;1.02;;;4.30;99.90;;;;;;5110849;27;20044;-88
2023/03/14 17:16:59;;;;;;;6.40;1.13;;;3.80;99.90;;;;;;5101934;28;20047;-86
2023/03/14 17:19:24;;;;;;;8.05;1.10;;;4.60;99.90;;;;;;5101292;28;20544;-88
2023/03/14 17:21:50;;;;;;;7.30;1.42;;;4.20;99.90;;;;;;5115340;27;20039;-88
2023/03/14 17:24:16;;;;;;;7.55;1.45;;;8.50;99.90;;;;;;5076174;28;20040;-86
2023/03/14 17:26:42;;;;;;;8.43;1.40;;;4.20;99.90;;;;;;5110515;27;20507;-86
2023/03/14 17:29:07;;;;;;;9.98;1.52;;;7.80;99.90;;;;;;5083757;28;20047;-83
2023/03/14 17:31:33;;;;;;;12.90;1.95;;;;;;;;;;5126462;27;20040;-81
2023/03/14 17:33:59;;;;;;;9.70;1.15;;;4.10;99.90;;;;;;5100269;27;20044;-85
2023/03/14 17:36:29;;;;;;;10.60;2.63;;;;;;;;;;5103633;27;20074;-86
2023/03/14 17:38:55;;;;;;;104.63;69.00;;;3.90;99.90;;;;;;5118311;27;20044;-87
2023/03/14 17:41:20;;;;;;;19.25;4.82;;;3.90;99.90;;;;;;5097571;28;20096;-87
2023/03/14 17:43:46;;;;;;;10.32;1.70;;;6.30;99.90;;;;;;5109368;28;20039;-86
2023/03/14 17:46:13;;;;;;;10.85;1.75;;;3.80;99.90;;;;;;5087559;28;20036;-88
2023/03/14 17:48:40;;;;;;;12.00;1.20;;;3.80;99.90;;;;;;5086548;28;20491;-87
2023/03/14 17:51:07;;;;;;;16.55;2.28;;;;;;;;;;5106061;27;20043;-88
2023/03/14 17:53:33;;;;;;;16.25;1.90;;;3.80;99.90;;;;;;5105156;28;20047;-88
2023/03/14 17:56:01;;;;;;;8.20;1.70;;;;;;;;;;5104403;28;20051;-89
2023/03/14 17:58:31;;;;;;;6.43;1.15;;;3.70;99.90;;;;;;5105605;28;20040;-87
2023/03/14 18:00:57;;;;;;;14.23;1.90;;;;;;;;;;5105602;28;20044;-88
2023/03/14 18:03:23;;;;;;;9.48;1.50;;;;;;;;;;5089229;28;20042;-88
2023/03/14 18:05:49;;;;;;;6.43;1.23;;;;;;;;;;5083459;28;20678;-89
2023/03/14 18:08:15;;;;;;;6.82;1.42;;;;;;;;;;5089039;28;20047;-88
2023/03/14 18:10:41;;;;;;;5.13;1.23;;;;;;;;;;5089106;28;20364;-87
2023/03/14 18:13:07;;;;;;;15.60;1.90;;;3.50;99.90;;;;;;5108289;28;20051;-88
2023/03/14 18:15:34;;;;;;;11.00;1.23;;;;;;;;;;5106582;28;20047;-89
2023/03/14 18:18:03;;;;;;;7.50;1.40;;;3.50;99.90;;;;;;5098613;28;20372;-87
2023/03/14 18:20:29;;;;;;;10.23;1.77;;;3.40;99.90;;;;;;5106816;28;20092;-86
2023/03/14 18:22:55;;;;;;;10.55;2.08;;;;;;;;;;5089089;28;20055;-89
2023/03/14 18:25:23;;;;;;;18.08;5.50;;;3.30;99.90;;;;;;5089856;28;20036;-88
2023/03/14 18:27:49;;;;;;;10.63;2.30;;;;;;;;;;5107256;28;20100;-87
2023/03/14 18:30:15;;;;;;;9.32;3.53;;;;;;;;;;5106841;28;20514;-87
2023/03/14 18:32:41;;;;;;;11.75;2.17;;;;;;;;;;5105454;28;20070;-86
2023/03/14 18:35:07;;;;;;;13.68;1.33;;;3.20;99.90;;;;;;5104832;28;20161;-87
2023/03/14 18:37:33;;;;;;;11.25;1.27;;;3.50;99.90;;;;;;5117079;27;20119;-86
2023/03/14 18:39:58;;;;;;;11.23;1.42;;;0.10;99.90;;;;;;5107065;28;20556;-87
2023/03/14 18:42:24;;;;;;;16.13;2.50;;;;;;;;;;5105712;28;20043;-87
2023/03/14 18:44:50;;;;;;;10.18;1.48;;;3.20;99.90;;;;;;5089553;28;20471;-87
2023/03/14 18:47:16;;;;;;;12.27;2.42;;;3.80;99.90;;;;;;5105388;28;20083;-87
2023/03/14 18:49:42;;;;;;;10.07;2.05;;;3.40;99.90;;;;;;5107369;28;20083;-86
2023/03/14 18:52:08;;;;;;;11.77;1.92;;;;;;;;;;5088985;28;20082;-86
2023/03/14 18:54:35;;;;;;;8.82;1.45;;;3.10;99.90;;;;;;5107847;28;20038;-86
2023/03/14 18:57:01;;;;;;;12.38;1.88;;;6.80;99.90;;;;;;5097454;28;20053;-87
2023/03/14 18:59:27;;;;;;;12.85;1.77;;;6.60;99.90;;;;;;5105877;28;20039;-87
2023/03/14 19:01:53;;;;;;;11.90;2.17;;;;;;;;;;5106235;28;20165;-86
2023/03/14 19:04:19;;;;;;;10.07;1.50;;;;;;;;;;5105306;28;20414;-86